sim
Sign-in with your pilot id or email,
or register
Callsign
Passwort

Schedule Details

Flight Number: DLH1899 (1)
Departure: Turin Caselle Airport (LIMF) at 16:25
Arrival: Munich Airport (EDDM) at 17:35
Route: Lufthansa Passenger Schedule. Enter filed route here before submitting Pirep.

Weather Information
Getting current METAR information for LIMF 250620Z 35003KT 320V020 4500 BR BKN015 BKN030 15/15 Q0997
Getting current METAR information for EDDM 250620Z 19007KT 9999 -RA FEW035 12/11 Q1000 TEMPO 28015G25KT RA

Schedule Frequency

Route Map